sensor_id;sensor_type;location;lat;lon;timestamp;pressure;altitude;pressure_sealevel;temperature;humidity
46506;BME280;32220;49.808;9.968;2023-02-03T11:04:35;99633.91;;;8.37;90.36
46506;BME280;32220;49.808;9.968;2023-02-03T11:07:05;99625.69;;;8.85;87.65
46506;BME280;32220;49.808;9.968;2023-02-03T11:09:35;99600.34;;;9.20;83.86
46506;BME280;32220;49.808;9.968;2023-02-03T11:12:11;99611.69;;;9.61;81.87
46506;BME280;32220;49.808;9.968;2023-02-03T11:14:41;99605.69;;;9.77;80.18
46506;BME280;32220;49.808;9.968;2023-02-03T11:17:15;99620.75;;;10.12;78.63
46506;BME280;32220;49.808;9.968;2023-02-03T11:19:46;99629.50;;;10.31;77.41
46506;BME280;32220;49.808;9.968;2023-02-03T11:22:26;99624.19;;;10.50;76.81
46506;BME280;32220;49.808;9.968;2023-02-03T11:24:55;99569.03;;;10.24;75.70
46506;BME280;32220;49.808;9.968;2023-02-03T11:27:24;99612.88;;;10.47;74.75
46506;BME280;32220;49.808;9.968;2023-02-03T11:30:10;99624.00;;;10.53;74.05
46506;BME280;32220;49.808;9.968;2023-02-03T11:32:41;99607.25;;;10.53;74.42
46506;BME280;32220;49.808;9.968;2023-02-03T11:35:16;99621.53;;;10.67;74.29
46506;BME280;32220;49.808;9.968;2023-02-03T11:37:46;99630.00;;;10.57;73.33
46506;BME280;32220;49.808;9.968;2023-02-03T11:40:32;99643.72;;;10.65;73.63
46506;BME280;32220;49.808;9.968;2023-02-03T11:43:09;99633.75;;;10.70;73.51
46506;BME280;32220;49.808;9.968;2023-02-03T11:45:43;99621.31;;;10.72;73.75
46506;BME280;32220;49.808;9.968;2023-02-03T11:48:22;99638.28;;;10.68;73.20
46506;BME280;32220;49.808;9.968;2023-02-03T11:50:59;99645.38;;;10.67;72.79
46506;BME280;32220;49.808;9.968;2023-02-03T11:53:34;99638.59;;;10.62;72.79
46506;BME280;32220;49.808;9.968;2023-02-03T11:56:16;99600.16;;;10.53;73.00
46506;BME280;32220;49.808;9.968;2023-02-03T11:59:10;99598.47;;;10.69;72.88
46506;BME280;32220;49.808;9.968;2023-02-03T12:01:57;99550.88;;;10.51;72.21
46506;BME280;32220;49.808;9.968;2023-02-03T12:04:57;99610.59;;;10.91;71.29
46506;BME280;32220;49.808;9.968;2023-02-03T12:07:42;99582.28;;;10.75;72.13
46506;BME280;32220;49.808;9.968;2023-02-03T12:10:27;99579.50;;;10.77;72.20
46506;BME280;32220;49.808;9.968;2023-02-03T12:13:04;99588.56;;;10.73;71.90
46506;BME280;32220;49.808;9.968;2023-02-03T12:15:53;99565.53;;;10.75;71.93
46506;BME280;32220;49.808;9.968;2023-02-03T12:18:36;99564.03;;;10.87;71.71
46506;BME280;32220;49.808;9.968;2023-02-03T12:21:22;99575.38;;;10.89;70.83
46506;BME280;32220;49.808;9.968;2023-02-03T12:24:03;99540.25;;;10.68;71.62
46506;BME280;32220;49.808;9.968;2023-02-03T12:26:41;99538.41;;;10.70;71.50
46506;BME280;32220;49.808;9.968;2023-02-03T12:29:15;99550.94;;;10.84;71.75
46506;BME280;32220;49.808;9.968;2023-02-03T12:31:50;99499.72;;;10.50;71.63
46506;BME280;32220;49.808;9.968;2023-02-03T12:34:26;99532.94;;;10.73;72.58
46506;BME280;32220;49.808;9.968;2023-02-03T12:36:58;99518.25;;;10.50;72.00
46506;BME280;32220;49.808;9.968;2023-02-03T12:39:33;99540.97;;;10.71;72.32
46506;BME280;32220;49.808;9.968;2023-02-03T12:42:10;99526.88;;;10.54;72.88
46506;BME280;32220;49.808;9.968;2023-02-03T12:44:44;99533.09;;;10.70;72.73
46506;BME280;32220;49.808;9.968;2023-02-03T12:47:20;99533.22;;;10.84;72.63
46506;BME280;32220;49.808;9.968;2023-02-03T12:49:53;99527.09;;;10.66;73.12
46506;BME280;32220;49.808;9.968;2023-02-03T12:52:28;99548.91;;;10.54;73.13
46506;BME280;32220;49.808;9.968;2023-02-03T12:55:07;99567.09;;;10.62;73.54
46506;BME280;32220;49.808;9.968;2023-02-03T12:57:45;99552.56;;;10.52;74.37
46506;BME280;32220;49.808;9.968;2023-02-03T13:00:31;99526.41;;;10.46;75.51
46506;BME280;32220;49.808;9.968;2023-02-03T13:03:15;99551.50;;;10.38;76.11
46506;BME280;32220;49.808;9.968;2023-02-03T13:05:49;99569.00;;;10.41;76.85
46506;BME280;32220;49.808;9.968;2023-02-03T13:08:26;99561.84;;;10.43;76.71
46506;BME280;32220;49.808;9.968;2023-02-03T13:11:05;99515.81;;;10.11;77.29
46506;BME280;32220;49.808;9.968;2023-02-03T13:13:42;99547.91;;;10.39;77.85
46506;BME280;32220;49.808;9.968;2023-02-03T13:16:15;99509.06;;;10.23;78.58
46506;BME280;32220;49.808;9.968;2023-02-03T13:18:51;99503.34;;;10.13;78.87
46506;BME280;32220;49.808;9.968;2023-02-03T13:21:20;99516.41;;;10.16;78.82
46506;BME280;32220;49.808;9.968;2023-02-03T13:23:48;99501.16;;;10.04;80.03
46506;BME280;32220;49.808;9.968;2023-02-03T13:26:32;99462.38;;;10.03;79.61
46506;BME280;32220;49.808;9.968;2023-02-03T13:29:24;99463.31;;;10.02;79.75
46506;BME280;32220;49.808;9.968;2023-02-03T13:32:06;99497.63;;;10.22;79.35
46506;BME280;32220;49.808;9.968;2023-02-03T13:34:56;99507.88;;;10.28;79.61
46506;BME280;32220;49.808;9.968;2023-02-03T13:37:40;99502.28;;;10.34;79.54
46506;BME280;32220;49.808;9.968;2023-02-03T13:40:21;99509.97;;;10.39;79.92
46506;BME280;32220;49.808;9.968;2023-02-03T13:43:02;99467.22;;;10.12;80.28
46506;BME280;32220;49.808;9.968;2023-02-03T13:45:35;99488.91;;;10.37;80.64
46506;BME280;32220;49.808;9.968;2023-02-03T13:48:09;99465.53;;;10.28;80.53
46506;BME280;32220;49.808;9.968;2023-02-03T13:50:40;99455.19;;;10.24;80.46
46506;BME280;32220;49.808;9.968;2023-02-03T13:53:15;99474.25;;;10.30;80.79
46506;BME280;32220;49.808;9.968;2023-02-03T13:55:50;99470.47;;;10.17;81.47
